createdAt,value
2022-10-17T00:00:02.303Z,12.13
2022-10-17T00:02:29.019Z,5.03
2022-10-17T00:04:55.888Z,30.20
2022-10-17T00:07:22.819Z,18.37
2022-10-17T00:09:49.428Z,9.00
2022-10-17T00:12:16.384Z,3.77
2022-10-17T00:14:43.230Z,4.47
2022-10-17T00:17:10.483Z,5.07
2022-10-17T00:19:37.121Z,12.07
2022-10-17T00:22:04.012Z,11.30
2022-10-17T00:24:31.840Z,4.80
2022-10-17T00:26:58.695Z,6.63
2022-10-17T00:29:25.435Z,3.27
2022-10-17T00:31:56.335Z,4.53
2022-10-17T00:34:23.453Z,6.50
2022-10-17T00:36:50.332Z,10.93
2022-10-17T00:39:17.297Z,13.57
2022-10-17T00:41:44.165Z,8.40
2022-10-17T00:44:29.580Z,15.03
2022-10-17T00:47:06.275Z,12.07
2022-10-17T00:49:35.937Z,6.37
2022-10-17T00:52:10.056Z,3.00
2022-10-17T00:54:58.330Z,6.30
2022-10-17T00:57:26.279Z,2.97
2022-10-17T00:59:56.358Z,3.03
2022-10-17T01:02:24.905Z,3.23
2022-10-17T01:04:55.830Z,3.07
2022-10-17T01:07:24.200Z,2.87
2022-10-17T01:09:50.975Z,3.10
2022-10-17T01:12:39.189Z,3.00
2022-10-17T01:15:18.417Z,4.97
2022-10-17T01:17:48.112Z,3.10
2022-10-17T01:20:56.161Z,2.60
2022-10-17T01:24:00.594Z,17.43
2022-10-17T01:26:55.680Z,10.10
2022-10-17T01:29:32.230Z,5.23
2022-10-17T01:32:13.855Z,7.97
2022-10-17T01:35:07.637Z,6.77
2022-10-17T01:37:43.613Z,12.13
2022-10-17T01:40:19.680Z,25.37
2022-10-17T01:42:52.905Z,15.77
2022-10-17T01:45:24.941Z,17.87
2022-10-17T01:47:54.476Z,4.67
2022-10-17T01:50:27.809Z,21.90
2022-10-17T01:52:59.896Z,19.97
2022-10-17T01:55:35.705Z,27.37
2022-10-17T01:58:11.606Z,13.93
2022-10-17T02:00:40.126Z,8.17
2022-10-17T02:03:10.567Z,10.63
2022-10-17T02:05:41.786Z,8.63
2022-10-17T02:08:08.676Z,3.30
2022-10-17T02:10:51.720Z,2.70
2022-10-17T02:13:36.836Z,3.80
2022-10-17T02:16:21.341Z,3.77
2022-10-17T02:18:58.151Z,5.10
2022-10-17T02:21:47.375Z,5.53
2022-10-17T02:24:40.348Z,4.70
2022-10-17T02:27:15.166Z,3.53
2022-10-17T02:29:59.007Z,8.27
2022-10-17T02:32:40.701Z,4.30
2022-10-17T02:35:10.478Z,10.40
2022-10-17T02:37:38.883Z,8.03
2022-10-17T02:40:08.667Z,19.33
2022-10-17T02:42:36.173Z,9.47
2022-10-17T02:45:05.248Z,27.17
2022-10-17T02:47:56.335Z,15.77
2022-10-17T02:50:31.789Z,20.90
2022-10-17T02:53:04.823Z,19.57
2022-10-17T02:55:35.546Z,4.33
2022-10-17T02:58:21.134Z,19.27
2022-10-17T03:00:48.422Z,9.43
2022-10-17T03:03:27.130Z,8.30
2022-10-17T03:05:54.415Z,15.83
2022-10-17T03:08:21.893Z,25.03
2022-10-17T03:10:48.637Z,9.90
2022-10-17T03:13:16.868Z,31.40
2022-10-17T03:15:43.605Z,22.83
2022-10-17T03:18:10.611Z,7.37
2022-10-17T03:20:37.552Z,17.87
2022-10-17T03:23:04.527Z,7.40
2022-10-17T03:25:31.318Z,19.50
2022-10-17T03:28:00.651Z,7.03
2022-10-17T03:30:27.890Z,11.73
2022-10-17T03:32:54.792Z,7.40
2022-10-17T03:35:21.839Z,6.47
2022-10-17T03:37:48.490Z,11.30
2022-10-17T03:40:15.749Z,10.07
2022-10-17T03:42:42.423Z,11.90
2022-10-17T03:45:09.717Z,9.73
2022-10-17T03:47:36.372Z,13.87
2022-10-17T03:50:03.479Z,8.13
2022-10-17T03:52:31.442Z,6.90
2022-10-17T03:54:58.088Z,5.50
2022-10-17T03:57:24.753Z,7.27
2022-10-17T03:59:52.661Z,15.30
2022-10-17T04:02:19.405Z,14.77
2022-10-17T04:04:46.051Z,8.43
2022-10-17T04:07:13.200Z,18.07
2022-10-17T04:09:39.864Z,11.83
2022-10-17T04:12:06.612Z,6.47
2022-10-17T04:14:33.480Z,10.87
2022-10-17T04:17:02.662Z,5.90
2022-10-17T04:19:29.363Z,13.00
2022-10-17T04:21:56.323Z,6.37
2022-10-17T04:24:23.040Z,10.00
2022-10-17T04:26:51.417Z,8.53
2022-10-17T04:29:20.166Z,4.97
2022-10-17T04:31:47.139Z,21.10
2022-10-17T04:34:16.903Z,11.13
2022-10-17T04:36:43.893Z,7.17
2022-10-17T04:39:10.621Z,8.73
2022-10-17T04:41:37.280Z,5.60
2022-10-17T04:44:04.228Z,7.70
2022-10-17T04:46:31.036Z,5.03
2022-10-17T04:48:57.735Z,3.30
2022-10-17T04:51:26.600Z,6.10
2022-10-17T04:53:53.745Z,6.80
2022-10-17T04:56:23.223Z,9.30
2022-10-17T04:58:51.228Z,5.10
2022-10-17T05:01:20.029Z,5.87
2022-10-17T05:03:48.390Z,6.27
2022-10-17T05:06:21.694Z,5.33
2022-10-17T05:08:48.805Z,10.97
2022-10-17T05:11:19.505Z,4.73
2022-10-17T05:13:51.519Z,8.47
2022-10-17T05:16:18.223Z,9.07
2022-10-17T05:18:47.430Z,5.00
2022-10-17T05:21:16.414Z,5.93
2022-10-17T05:23:43.057Z,5.80
2022-10-17T05:26:09.733Z,10.13
2022-10-17T05:28:37.651Z,12.60
2022-10-17T05:31:06.281Z,4.50
2022-10-17T05:33:33.889Z,6.10
2022-10-17T05:36:00.752Z,11.03
2022-10-17T05:38:28.253Z,10.07
2022-10-17T05:41:04.376Z,5.60
2022-10-17T05:43:32.314Z,4.53
2022-10-17T05:45:59.065Z,10.83
2022-10-17T05:48:25.966Z,6.57
2022-10-17T05:51:01.742Z,5.67
2022-10-17T05:53:32.389Z,17.80
2022-10-17T05:56:01.759Z,5.07
2022-10-17T06:01:15.793Z,6.57
2022-10-17T06:03:42.497Z,7.27
2022-10-17T06:06:13.271Z,7.63
2022-10-17T06:08:40.075Z,7.90
2022-10-17T06:11:09.911Z,6.80
2022-10-17T06:13:38.222Z,4.10
2022-10-17T06:16:05.396Z,4.57
2022-10-17T06:18:32.345Z,8.23
2022-10-17T06:21:04.695Z,5.47
2022-10-17T06:23:31.513Z,5.17
2022-10-17T06:26:00.505Z,5.63
2022-10-17T06:28:27.575Z,5.53
2022-10-17T06:30:54.323Z,5.70
2022-10-17T06:33:21.845Z,10.60
2022-10-17T06:35:53.683Z,10.73
2022-10-17T06:38:20.694Z,10.13
2022-10-17T06:40:47.526Z,10.90
2022-10-17T06:43:14.756Z,9.13
2022-10-17T06:45:42.544Z,12.20
2022-10-17T06:48:09.274Z,9.43
2022-10-17T06:50:36.159Z,8.57
2022-10-17T06:53:02.781Z,11.10
2022-10-17T06:55:31.550Z,8.23
2022-10-17T06:57:58.591Z,10.30
2022-10-17T07:00:26.719Z,8.10
2022-10-17T07:02:53.375Z,6.77
2022-10-17T07:05:20.074Z,7.00
2022-10-17T07:07:48.576Z,5.57
2022-10-17T07:10:18.655Z,7.47
2022-10-17T07:12:45.850Z,6.03
2022-10-17T07:15:13.242Z,4.77
2022-10-17T07:17:40.060Z,5.67
2022-10-17T07:20:07.308Z,5.70
2022-10-17T07:22:34.288Z,8.80
2022-10-17T07:25:04.141Z,5.73
2022-10-17T07:27:31.041Z,6.33
2022-10-17T07:29:59.053Z,4.33
2022-10-17T07:32:25.918Z,6.57
2022-10-17T07:34:52.530Z,5.70
2022-10-17T07:37:19.175Z,8.87
2022-10-17T07:39:45.792Z,5.27
2022-10-17T07:42:15.004Z,3.33
2022-10-17T07:44:41.671Z,4.87
2022-10-17T07:47:08.414Z,3.60
2022-10-17T07:49:35.075Z,6.47
2022-10-17T07:52:01.761Z,5.80
2022-10-17T07:54:28.400Z,5.80
2022-10-17T07:56:55.021Z,3.90
2022-10-17T07:59:21.644Z,4.03
2022-10-17T08:01:49.273Z,3.63
2022-10-17T08:04:16.979Z,3.50
2022-10-17T08:06:44.005Z,4.80
2022-10-17T08:09:13.759Z,4.30
2022-10-17T08:11:40.411Z,5.27
2022-10-17T08:14:07.209Z,4.87
2022-10-17T08:16:34.335Z,3.50
2022-10-17T08:19:01.250Z,4.50
2022-10-17T08:21:28.037Z,6.53
2022-10-17T08:23:55.000Z,5.80
2022-10-17T08:26:21.654Z,2.90
2022-10-17T08:28:49.577Z,3.17
2022-10-17T08:31:19.537Z,3.10
2022-10-17T08:33:47.593Z,4.50
2022-10-17T08:36:16.603Z,3.83
2022-10-17T08:38:52.426Z,3.70
2022-10-17T08:41:47.726Z,3.17
2022-10-17T08:44:56.997Z,3.53
2022-10-17T08:47:39.886Z,3.37
2022-10-17T08:50:32.680Z,4.63
2022-10-17T08:53:39.944Z,3.13
2022-10-17T08:56:25.164Z,3.50
2022-10-17T08:59:26.886Z,4.47
2022-10-17T09:02:22.859Z,4.10
2022-10-17T09:05:04.265Z,3.47
2022-10-17T09:07:43.020Z,2.50
2022-10-17T09:10:21.150Z,2.10
2022-10-17T09:13:14.835Z,3.83
2022-10-17T09:16:37.767Z,2.10
2022-10-17T09:19:24.663Z,2.40
2022-10-17T09:21:59.978Z,2.57
2022-10-17T09:24:35.813Z,3.57
2022-10-17T09:27:04.021Z,6.07
2022-10-17T09:29:36.115Z,3.40
2022-10-17T09:32:14.975Z,2.53
2022-10-17T09:34:41.695Z,2.20
2022-10-17T09:37:14.650Z,1.73
2022-10-17T09:39:44.848Z,2.07
2022-10-17T09:42:19.331Z,2.77
2022-10-17T09:44:52.287Z,3.93
2022-10-17T09:47:52.071Z,3.00
2022-10-17T09:50:30.467Z,4.27
2022-10-17T09:53:02.984Z,2.80
2022-10-17T09:55:41.689Z,2.60
2022-10-17T09:58:11.192Z,2.53
2022-10-17T10:00:42.253Z,7.87
2022-10-17T10:03:19.586Z,12.23
2022-10-17T10:06:03.549Z,2.77
2022-10-17T10:08:36.624Z,3.10
2022-10-17T10:11:13.431Z,1.60
2022-10-17T10:13:40.488Z,2.90
2022-10-17T10:16:34.418Z,1.53
2022-10-17T10:19:03.626Z,1.90
2022-10-17T10:21:32.461Z,1.40
2022-10-17T10:24:09.483Z,1.70
2022-10-17T10:26:48.722Z,2.47
2022-10-17T10:29:32.239Z,1.63
2022-10-17T10:32:11.668Z,1.30
2022-10-17T10:34:47.467Z,1.77
2022-10-17T10:37:27.031Z,1.50
2022-10-17T10:39:57.412Z,4.87
2022-10-17T10:42:24.060Z,2.50
2022-10-17T10:44:52.491Z,1.47
2022-10-17T10:47:26.756Z,2.30
2022-10-17T10:50:09.408Z,2.20
2022-10-17T10:52:48.123Z,1.40
2022-10-17T10:55:23.862Z,3.13
2022-10-17T10:57:53.351Z,2.30
2022-10-17T11:00:25.079Z,2.70
2022-10-17T11:02:54.735Z,2.43
2022-10-17T11:05:35.565Z,3.93
2022-10-17T11:08:30.278Z,1.57
2022-10-17T11:11:18.398Z,1.80
2022-10-17T11:14:05.746Z,2.13
2022-10-17T11:16:45.983Z,3.87
2022-10-17T11:19:20.758Z,1.90
2022-10-17T11:21:57.064Z,2.57
2022-10-17T11:24:35.962Z,2.40
2022-10-17T11:27:06.186Z,2.00
2022-10-17T11:29:36.577Z,2.27
2022-10-17T11:32:19.696Z,3.80
2022-10-17T11:35:01.180Z,4.37
2022-10-17T11:37:34.662Z,2.30
2022-10-17T11:40:06.390Z,3.43
2022-10-17T11:42:50.840Z,1.90
2022-10-17T11:45:21.606Z,3.57
2022-10-17T11:47:54.239Z,3.03
2022-10-17T11:53:21.755Z,2.00
2022-10-17T11:55:50.413Z,2.63
2022-10-17T11:58:37.456Z,3.80
2022-10-17T12:01:25.478Z,2.10
2022-10-17T12:04:18.523Z,4.37
2022-10-17T12:07:10.869Z,1.80
2022-10-17T12:09:43.668Z,2.33
2022-10-17T12:12:10.311Z,2.47
2022-10-17T12:14:42.472Z,3.90
2022-10-17T12:17:28.248Z,2.80
2022-10-17T12:20:21.683Z,3.57
2022-10-17T12:22:52.779Z,2.83
2022-10-17T12:25:32.227Z,2.23
2022-10-17T12:28:26.886Z,3.80
2022-10-17T12:30:58.746Z,3.17
2022-10-17T12:33:52.351Z,2.83
2022-10-17T12:36:21.502Z,2.70
2022-10-17T12:39:13.393Z,2.20
2022-10-17T12:41:40.367Z,1.73
2022-10-17T12:44:28.224Z,2.00
2022-10-17T12:47:05.726Z,2.20
2022-10-17T12:49:54.331Z,2.37
2022-10-17T12:52:32.605Z,2.93
2022-10-17T12:55:11.414Z,1.90
2022-10-17T12:58:09.757Z,1.70
2022-10-17T13:01:11.843Z,2.37
2022-10-17T13:03:46.101Z,3.30
2022-10-17T13:06:21.889Z,3.17
2022-10-17T13:08:59.764Z,2.50
2022-10-17T13:11:33.626Z,1.80
2022-10-17T13:14:05.909Z,4.17
2022-10-17T13:16:35.870Z,3.53
2022-10-17T13:19:14.900Z,2.57
2022-10-17T13:21:59.847Z,3.07
2022-10-17T13:24:40.186Z,3.90
2022-10-17T13:27:27.788Z,2.40
2022-10-17T13:29:58.599Z,2.20
2022-10-17T13:32:28.029Z,3.30
2022-10-17T13:35:17.157Z,2.00
2022-10-17T13:37:51.562Z,2.13
2022-10-17T13:43:21.924Z,2.60
2022-10-17T13:45:51.643Z,2.40
2022-10-17T13:48:21.791Z,7.63
2022-10-17T13:50:52.012Z,2.70
2022-10-17T13:53:32.345Z,6.07
2022-10-17T13:56:27.964Z,2.47
2022-10-17T13:59:10.892Z,2.07
2022-10-17T14:01:38.433Z,2.53
2022-10-17T14:04:10.213Z,2.20
2022-10-17T14:06:49.269Z,7.20
2022-10-17T14:09:25.832Z,3.03
2022-10-17T14:12:11.002Z,3.30
2022-10-17T14:14:58.327Z,3.33
2022-10-17T14:17:29.085Z,4.40
2022-10-17T14:23:17.878Z,2.73
2022-10-17T14:25:42.118Z,2.43
2022-10-17T14:28:12.462Z,3.47
2022-10-17T14:30:58.140Z,4.80
2022-10-17T14:33:27.221Z,3.23
2022-10-17T14:35:56.092Z,2.83
2022-10-17T14:38:26.427Z,3.33
2022-10-17T14:41:41.386Z,6.47
2022-10-17T14:44:06.541Z,3.17
2022-10-17T14:46:35.679Z,2.70
2022-10-17T14:49:16.388Z,2.90
2022-10-17T14:52:13.404Z,2.10
2022-10-17T14:54:46.516Z,3.33
2022-10-17T14:57:34.650Z,3.63
2022-10-17T15:00:01.468Z,3.53
2022-10-17T15:02:30.034Z,4.10
2022-10-17T15:04:57.360Z,3.13
2022-10-17T15:07:24.342Z,4.43
2022-10-17T15:09:53.393Z,3.70
2022-10-17T15:12:25.588Z,7.33
2022-10-17T15:14:53.219Z,3.40
2022-10-17T15:17:29.927Z,2.93
2022-10-17T15:19:58.244Z,4.43
2022-10-17T15:22:25.622Z,3.77
2022-10-17T15:24:52.484Z,6.40
2022-10-17T15:27:27.608Z,5.60
2022-10-17T15:29:55.020Z,5.13
2022-10-17T15:32:21.649Z,4.00
2022-10-17T15:34:48.561Z,4.00
2022-10-17T15:37:26.401Z,3.87
2022-10-17T15:39:55.564Z,4.60
2022-10-17T15:42:30.650Z,6.27
2022-10-17T15:44:58.059Z,5.23
2022-10-17T15:47:31.482Z,4.03
2022-10-17T15:49:59.642Z,3.60
2022-10-17T15:52:27.295Z,6.27
2022-10-17T15:54:56.434Z,5.20
2022-10-17T15:57:29.606Z,6.33
2022-10-17T15:59:59.061Z,5.73
2022-10-17T16:02:27.542Z,9.17
2022-10-17T16:04:54.188Z,29.77
2022-10-17T16:07:22.133Z,26.57
2022-10-17T16:09:48.806Z,28.43
2022-10-17T16:12:33.647Z,27.80
2022-10-17T16:15:01.934Z,18.30
2022-10-17T16:17:28.799Z,27.10
2022-10-17T16:19:55.680Z,12.27
2022-10-17T16:22:33.780Z,32.07
2022-10-17T16:25:07.763Z,48.63
2022-10-17T16:27:34.977Z,30.33
2022-10-17T16:30:02.070Z,22.00
2022-10-17T16:32:29.044Z,64.40
2022-10-17T16:34:56.298Z,69.13
2022-10-17T16:37:22.989Z,40.47
2022-10-17T16:39:53.155Z,26.10
2022-10-17T16:42:29.760Z,13.13
2022-10-17T16:44:56.640Z,22.30
2022-10-17T16:47:23.537Z,13.00
2022-10-17T16:49:50.239Z,15.50
2022-10-17T16:52:16.991Z,34.20
2022-10-17T16:54:43.996Z,24.80
2022-10-17T16:57:10.679Z,32.60
2022-10-17T16:59:37.479Z,17.67
2022-10-17T17:02:04.948Z,15.03
2022-10-17T17:04:31.785Z,14.63
2022-10-17T17:06:58.547Z,12.50
2022-10-17T17:09:25.405Z,15.97
2022-10-17T17:11:52.148Z,10.90
2022-10-17T17:14:26.076Z,13.20
2022-10-17T17:16:59.953Z,15.37
2022-10-17T17:19:26.760Z,12.23
2022-10-17T17:21:53.440Z,14.17
2022-10-17T17:24:21.551Z,22.30
2022-10-17T17:26:56.129Z,19.83
2022-10-17T17:29:25.018Z,19.90
2022-10-17T17:31:52.128Z,15.43
2022-10-17T17:34:18.835Z,18.57
2022-10-17T17:36:45.798Z,32.90
2022-10-17T17:39:14.834Z,15.93
2022-10-17T17:41:51.535Z,46.57
2022-10-17T17:44:18.283Z,32.90
2022-10-17T17:46:45.569Z,32.67
2022-10-17T17:49:12.807Z,26.27
2022-10-17T17:51:41.754Z,20.97
2022-10-17T17:54:11.597Z,20.53
2022-10-17T17:56:39.084Z,21.67
2022-10-17T17:59:06.043Z,17.97
2022-10-17T18:01:38.210Z,16.30
2022-10-17T18:04:10.364Z,14.83
2022-10-17T18:06:38.361Z,14.40
2022-10-17T18:09:09.116Z,19.07
2022-10-17T18:11:39.033Z,20.33
2022-10-17T18:14:07.913Z,19.10
2022-10-17T18:16:36.444Z,16.63
2022-10-17T18:19:07.172Z,18.70
2022-10-17T18:21:34.681Z,14.43
2022-10-17T18:24:02.218Z,15.73
2022-10-17T18:26:28.915Z,13.60
2022-10-17T18:28:55.700Z,18.77
2022-10-17T18:31:29.107Z,18.47
2022-10-17T18:33:58.110Z,18.00
2022-10-17T18:36:26.273Z,18.73
2022-10-17T18:38:57.232Z,16.50
2022-10-17T18:41:26.371Z,17.67
2022-10-17T18:43:54.984Z,21.90
2022-10-17T18:46:41.930Z,23.83
2022-10-17T18:49:11.257Z,25.43
2022-10-17T18:51:38.042Z,37.13
2022-10-17T18:54:12.101Z,37.87
2022-10-17T18:56:40.494Z,22.83
2022-10-17T18:59:08.834Z,19.53
2022-10-17T19:01:35.982Z,15.47
2022-10-17T19:04:04.090Z,12.90
2022-10-17T19:06:32.162Z,21.30
2022-10-17T19:09:00.612Z,15.27
2022-10-17T19:11:29.400Z,11.57
2022-10-17T19:13:57.884Z,13.97
2022-10-17T19:16:28.010Z,13.17
2022-10-17T19:18:59.769Z,13.27
2022-10-17T19:21:27.023Z,13.20
2022-10-17T19:23:58.900Z,16.83
2022-10-17T19:26:27.695Z,17.03
2022-10-17T19:29:00.392Z,16.07
2022-10-17T19:31:29.941Z,14.47
2022-10-17T19:33:56.857Z,12.07
2022-10-17T19:36:28.953Z,12.57
2022-10-17T19:38:59.749Z,11.60
2022-10-17T19:41:26.700Z,10.73
2022-10-17T19:43:53.670Z,11.37
2022-10-17T19:46:24.748Z,11.47
2022-10-17T19:48:51.992Z,11.53
2022-10-17T19:51:24.722Z,13.17
2022-10-17T19:53:52.687Z,12.27
2022-10-17T19:56:21.159Z,15.80
2022-10-17T19:58:48.988Z,15.10
2022-10-17T20:01:18.878Z,13.97
2022-10-17T20:03:48.179Z,11.70
2022-10-17T20:06:18.330Z,11.27
2022-10-17T20:08:49.001Z,10.10
2022-10-17T20:11:21.772Z,10.63
2022-10-17T20:13:49.047Z,11.03
2022-10-17T20:16:22.126Z,11.93
2022-10-17T20:18:50.588Z,12.83
2022-10-17T20:21:21.251Z,16.00
2022-10-17T20:23:50.777Z,12.97
2022-10-17T20:26:38.704Z,14.23
2022-10-17T20:29:11.692Z,17.40
2022-10-17T20:31:39.609Z,15.60
2022-10-17T20:34:06.358Z,16.83
2022-10-17T20:36:37.655Z,15.43
2022-10-17T20:39:07.304Z,15.67
2022-10-17T20:41:35.257Z,13.93
2022-10-17T20:44:03.097Z,10.10
2022-10-17T20:46:36.771Z,10.77
2022-10-17T20:49:08.079Z,10.07
2022-10-17T20:51:35.921Z,8.83
2022-10-17T20:54:03.531Z,11.63
2022-10-17T20:56:32.578Z,10.57
2022-10-17T20:59:01.967Z,11.33
2022-10-17T21:01:30.402Z,10.03
2022-10-17T21:04:06.097Z,21.30
2022-10-17T21:06:44.331Z,24.53
2022-10-17T21:09:11.049Z,14.27
2022-10-17T21:11:37.808Z,15.37
2022-10-17T21:14:06.603Z,9.23
2022-10-17T21:16:35.602Z,10.93
2022-10-17T21:19:04.199Z,11.33
2022-10-17T21:21:38.699Z,9.40
2022-10-17T21:24:12.411Z,10.03
2022-10-17T21:26:42.088Z,11.33
2022-10-17T21:29:10.255Z,10.63
2022-10-17T21:31:39.060Z,11.80
2022-10-17T21:34:08.453Z,13.30
2022-10-17T21:36:35.445Z,9.90
2022-10-17T21:39:02.857Z,9.23
2022-10-17T21:41:30.851Z,12.50
2022-10-17T21:44:00.612Z,11.07
2022-10-17T21:46:28.792Z,12.20
2022-10-17T21:48:55.531Z,14.80
2022-10-17T21:51:24.726Z,7.07
2022-10-17T21:53:53.473Z,10.27
2022-10-17T21:56:22.424Z,13.13
2022-10-17T21:58:51.125Z,9.53
2022-10-17T22:01:24.280Z,8.50
2022-10-17T22:03:57.297Z,8.60
2022-10-17T22:06:39.735Z,9.57
2022-10-17T22:09:11.405Z,13.40
2022-10-17T22:11:40.663Z,10.47
2022-10-17T22:14:16.616Z,8.60
2022-10-17T22:16:45.647Z,12.77
2022-10-17T22:19:14.995Z,14.83
2022-10-17T22:21:42.070Z,11.10
2022-10-17T22:24:12.326Z,12.17
2022-10-17T22:26:39.895Z,11.97
2022-10-17T22:29:08.082Z,24.20
2022-10-17T22:31:35.395Z,6.90
2022-10-17T22:34:03.558Z,7.70
2022-10-17T22:36:33.172Z,8.60
2022-10-17T22:38:59.963Z,11.17
2022-10-17T22:41:27.105Z,9.83
2022-10-17T22:43:53.826Z,8.73
2022-10-17T22:46:20.849Z,6.73
2022-10-17T22:48:47.846Z,6.33
2022-10-17T22:51:15.039Z,6.77
2022-10-17T22:53:42.379Z,6.57
2022-10-17T22:56:18.361Z,6.87
2022-10-17T22:58:46.008Z,67.83
2022-10-17T23:01:18.672Z,6.00
2022-10-17T23:03:45.691Z,11.30
2022-10-17T23:06:13.065Z,7.30
2022-10-17T23:08:41.251Z,7.07
2022-10-17T23:11:08.400Z,8.50
2022-10-17T23:13:36.670Z,9.80
2022-10-17T23:16:04.054Z,7.10
2022-10-17T23:20:57.702Z,8.70
2022-10-17T23:23:24.746Z,12.33
2022-10-17T23:25:52.008Z,10.97
2022-10-17T23:28:19.099Z,14.23
2022-10-17T23:30:46.142Z,13.77
2022-10-17T23:33:14.082Z,22.07
2022-10-17T23:35:41.603Z,7.87
2022-10-17T23:38:08.961Z,14.77
2022-10-17T23:40:35.741Z,11.37
2022-10-17T23:43:04.861Z,12.20
2022-10-17T23:45:36.015Z,9.93
2022-10-17T23:48:04.821Z,10.90
2022-10-17T23:50:31.614Z,20.63
2022-10-17T23:52:58.374Z,10.07
2022-10-17T23:55:25.384Z,11.07
2022-10-17T23:57:54.371Z,8.23
